Time;durP1;ratioP1;P1;durP2;ratioP2;P2;SDS_P1;SDS_P2;PMS_P1;PMS_P2;Temp;Humidity;BMP_temperature;BMP_pressure;BME280_temperature;BME280_humidity;BME280_pressure;Samples;Min_cycle;Max_cycle;Signal;HPM_P1;HPM_P2
2023/06/14 00:00:11;;;;;;;6.28;3.15;;;;;;;;;;5092582;28;20032;-65
2023/06/14 00:02:39;;;;;;;4.38;2.80;;;;;;;;;;5092754;28;20028;-65
2023/06/14 00:05:05;;;;;;;4.90;3.17;;;;;;;;;;5112598;28;20138;-64
2023/06/14 00:07:42;;;;;;;6.45;2.97;;;;;;;;;;5112373;28;20028;-65
2023/06/14 00:10:08;;;;;;;5.60;3.22;;;;;;;;;;5112577;28;20076;-64
2023/06/14 00:12:33;;;;;;;4.25;2.78;;;;;;;;;;5114922;28;20024;-65
2023/06/14 00:15:01;;;;;;;6.20;2.92;;;;;;;;;;5116284;28;20096;-64
2023/06/14 00:17:29;;;;;;;8.10;3.10;;;;;;;;;;5116079;28;20028;-64
2023/06/14 00:19:56;;;;;;;5.43;2.70;;;;;;;;;;5116194;28;20397;-65
2023/06/14 00:22:24;;;;;;;6.75;2.90;;;;;;;;;;5115902;28;20028;-65
2023/06/14 00:24:50;;;;;;;7.65;3.13;;;;;;;;;;5116204;28;20099;-65
2023/06/14 00:27:16;;;;;;;5.43;3.13;;;;;;;;;;5116094;28;20036;-65
2023/06/14 00:29:41;;;;;;;7.03;2.90;;;;;;;;;;5116221;28;20016;-65
2023/06/14 00:32:07;;;;;;;6.50;3.08;;;;;;;;;;5116086;28;20480;-65
2023/06/14 00:34:33;;;;;;;8.40;3.00;;;;;;;;;;5115905;28;20408;-65
2023/06/14 00:36:59;;;;;;;6.05;2.90;;;;;;;;;;5112029;28;20020;-65
2023/06/14 00:39:24;;;;;;;6.82;3.00;;;;;;;;;;5105854;28;20027;-65
2023/06/14 00:41:49;;;;;;;9.38;3.05;;;;;;;;;;5115784;28;20047;-65
2023/06/14 00:44:16;;;;;;;5.57;2.92;;;;;;;;;;5115838;28;20384;-65
2023/06/14 00:46:42;;;;;;;4.43;2.72;;;;;;;;;;5109008;28;20035;-65
2023/06/14 00:49:08;;;;;;;6.65;3.38;;;;;;;;;;5094936;28;20044;-65
2023/06/14 00:51:34;;;;;;;6.13;2.92;;;;;;;;;;5095019;28;20034;-65
2023/06/14 00:54:00;;;;;;;5.05;2.95;;;;;;;;;;5095100;28;20042;-65
2023/06/14 00:56:27;;;;;;;5.13;2.92;;;;;;;;;;5095048;28;20048;-65
2023/06/14 00:58:53;;;;;;;7.35;3.20;;;;;;;;;;5095228;28;20504;-65
2023/06/14 01:01:18;;;;;;;8.15;3.20;;;;;;;;;;5094919;28;20028;-64
2023/06/14 01:03:44;;;;;;;9.90;3.13;;;;;;;;;;5104696;28;20106;-65
2023/06/14 01:06:29;;;;;;;7.60;3.17;;;;;;;;;;5115009;28;20381;-65
2023/06/14 01:09:09;;;;;;;9.38;3.05;;;;;;;;;;5115439;28;20058;-64
2023/06/14 01:11:48;;;;;;;10.45;3.33;;;;;;;;;;5115174;28;20102;-65
2023/06/14 01:14:14;;;;;;;8.10;3.50;;;;;;;;;;5115340;28;20465;-65
2023/06/14 01:16:40;;;;;;;6.05;3.55;;;;;;;;;;5115129;28;20039;-65
2023/06/14 01:19:13;;;;;;;9.75;3.25;;;;;;;;;;5114971;28;20042;-65
2023/06/14 01:21:41;;;;;;;12.02;3.20;;;;;;;;;;5114413;28;20050;-65
2023/06/14 01:24:08;;;;;;;11.05;3.78;;;;;;;;;;5114868;28;20024;-65
2023/06/14 01:26:37;;;;;;;5.43;3.00;;;;;;;;;;5114899;28;20023;-65
2023/06/14 01:29:03;;;;;;;6.43;3.30;;;;;;;;;;5114936;28;20076;-65
2023/06/14 01:31:29;;;;;;;5.70;3.30;;;;;;;;;;5114841;28;20073;-65
2023/06/14 01:33:55;;;;;;;7.47;3.00;;;;;;;;;;5114698;28;20107;-65
2023/06/14 01:36:22;;;;;;;7.80;3.08;;;;;;;;;;5114840;28;20059;-65
2023/06/14 01:38:50;;;;;;;7.50;3.00;;;;;;;;;;5100766;28;20497;-65
2023/06/14 01:41:17;;;;;;;7.40;3.38;;;;;;;;;;5113290;28;20122;-65
2023/06/14 01:43:43;;;;;;;5.45;3.40;;;;;;;;;;5114744;28;20051;-65
2023/06/14 01:46:10;;;;;;;5.13;3.25;;;;;;;;;;5112682;28;20036;-64
2023/06/14 01:48:36;;;;;;;10.75;3.67;;;;;;;;;;5093530;28;20563;-64
2023/06/14 01:51:01;;;;;;;8.73;3.47;;;;;;;;;;5093995;28;20126;-64
2023/06/14 01:53:27;;;;;;;6.53;3.25;;;;;;;;;;5093920;28;20419;-64
2023/06/14 01:55:54;;;;;;;7.00;3.63;;;;;;;;;;5093988;28;20020;-64
2023/06/14 01:58:19;;;;;;;10.02;3.63;;;;;;;;;;5093696;28;20081;-64
2023/06/14 02:00:45;;;;;;;9.95;3.55;;;;;;;;;;5093869;28;20020;-65
2023/06/14 02:03:12;;;;;;;6.75;3.60;;;;;;;;;;5098564;28;20031;-65
2023/06/14 02:05:39;;;;;;;5.97;3.45;;;;;;;;;;5114084;28;20036;-65
2023/06/14 02:08:05;;;;;;;7.45;3.33;;;;;;;;;;5114023;28;20076;-65
2023/06/14 02:10:30;;;;;;;6.80;3.47;;;;;;;;;;5113969;28;20106;-65
2023/06/14 02:12:56;;;;;;;5.60;3.33;;;;;;;;;;5114133;28;20023;-64
2023/06/14 02:15:21;;;;;;;6.97;3.25;;;;;;;;;;5113950;28;20112;-65
2023/06/14 02:17:47;;;;;;;9.25;3.45;;;;;;;;;;5113677;27;20389;-65
2023/06/14 02:20:13;;;;;;;8.50;3.28;;;;;;;;;;5113829;28;20157;-65
2023/06/14 02:22:38;;;;;;;5.63;3.40;;;;;;;;;;5113911;28;20031;-65
2023/06/14 02:25:04;;;;;;;10.15;3.50;;;;;;;;;;5113831;28;20465;-65
2023/06/14 02:27:29;;;;;;;7.53;3.45;;;;;;;;;;5113653;28;20038;-64
2023/06/14 02:29:55;;;;;;;9.73;3.58;;;;;;;;;;5113717;28;20129;-65
2023/06/14 02:32:20;;;;;;;7.05;3.58;;;;;;;;;;5113423;28;20046;-65
2023/06/14 02:34:49;;;;;;;7.50;3.40;;;;;;;;;;5112902;28;20073;-65
2023/06/14 02:37:17;;;;;;;8.70;3.65;;;;;;;;;;5107684;28;20020;-65
2023/06/14 02:39:43;;;;;;;8.25;3.15;;;;;;;;;;5106099;28;20066;-65
2023/06/14 02:42:08;;;;;;;7.70;4.40;;;;;;;;;;5113555;28;20051;-65
2023/06/14 02:44:35;;;;;;;6.50;3.22;;;;;;;;;;5113301;28;20028;-65
2023/06/14 02:47:01;;;;;;;8.00;3.28;;;;;;;;;;5103648;28;20028;-65
2023/06/14 02:49:26;;;;;;;7.93;3.00;;;;;;;;;;5092975;28;20081;-65
2023/06/14 02:51:52;;;;;;;7.72;2.97;;;;;;;;;;5093131;28;20420;-64
2023/06/14 02:54:17;;;;;;;7.32;3.40;;;;;;;;;;5092913;28;20028;-65
2023/06/14 02:56:43;;;;;;;7.10;3.30;;;;;;;;;;5093030;28;20059;-65
2023/06/14 02:59:09;;;;;;;6.50;3.63;;;;;;;;;;5093047;28;20028;-64
2023/06/14 03:01:34;;;;;;;8.13;3.25;;;;;;;;;;5092835;28;20035;-65
2023/06/14 03:04:03;;;;;;;7.47;3.30;;;;;;;;;;5104778;28;20024;-65
2023/06/14 03:06:32;;;;;;;6.13;2.97;;;;;;;;;;5113189;28;20449;-65
2023/06/14 03:09:01;;;;;;;6.57;3.28;;;;;;;;;;5113242;28;20476;-65
2023/06/14 03:11:27;;;;;;;7.10;4.80;;;;;;;;;;5113073;28;20490;-65
2023/06/14 03:13:53;;;;;;;10.10;3.40;;;;;;;;;;5113279;28;20030;-65
2023/06/14 03:16:20;;;;;;;6.90;2.95;;;;;;;;;;5112898;28;20034;-65
2023/06/14 03:18:45;;;;;;;7.63;3.05;;;;;;;;;;5113029;28;20043;-65
2023/06/14 03:21:11;;;;;;;6.97;3.17;;;;;;;;;;5112991;28;20016;-65
2023/06/14 03:23:36;;;;;;;5.72;3.30;;;;;;;;;;5112932;28;20042;-64
2023/06/14 03:26:02;;;;;;;6.55;3.15;;;;;;;;;;5112931;28;20051;-65
2023/06/14 03:28:27;;;;;;;5.57;3.63;;;;;;;;;;5112920;28;20030;-65
2023/06/14 03:30:53;;;;;;;5.97;2.97;;;;;;;;;;5112819;28;20027;-65
2023/06/14 03:33:19;;;;;;;8.63;3.10;;;;;;;;;;5113099;28;20016;-65
2023/06/14 03:35:44;;;;;;;6.93;2.95;;;;;;;;;;5112974;28;20422;-65
2023/06/14 03:38:10;;;;;;;4.85;2.85;;;;;;;;;;5099286;28;20124;-65
2023/06/14 03:40:35;;;;;;;11.68;3.25;;;;;;;;;;5087790;28;20040;-65
2023/06/14 03:43:00;;;;;;;8.50;3.10;;;;;;;;;;5072492;28;20439;-65
2023/06/14 03:45:26;;;;;;;11.23;3.92;;;;;;;;;;5073909;28;20075;-65
2023/06/14 03:47:52;;;;;;;8.93;3.00;;;;;;;;;;5091935;28;20494;-65
2023/06/14 03:50:18;;;;;;;12.43;3.25;;;;;;;;;;5096131;28;20489;-65
2023/06/14 03:52:44;;;;;;;10.02;3.15;;;;;;;;;;5096371;28;20024;-65
2023/06/14 03:55:10;;;;;;;5.15;3.10;;;;;;;;;;5096210;28;20137;-65
2023/06/14 03:57:35;;;;;;;8.75;3.10;;;;;;;;;;5096228;28;20385;-65
2023/06/14 04:00:01;;;;;;;8.07;2.80;;;;;;;;;;5095979;28;20090;-65
2023/06/14 04:02:28;;;;;;;7.57;3.00;;;;;;;;;;5094868;28;20024;-65
2023/06/14 04:04:54;;;;;;;5.50;2.85;;;;;;;;;;5115691;28;20024;-65
2023/06/14 04:07:20;;;;;;;8.40;3.50;;;;;;;;;;5116415;28;20107;-65
2023/06/14 04:09:46;;;;;;;7.32;3.17;;;;;;;;;;5116115;28;20055;-65
2023/06/14 04:12:11;;;;;;;7.25;3.20;;;;;;;;;;5116471;28;20036;-65
2023/06/14 04:14:38;;;;;;;5.32;2.95;;;;;;;;;;5116147;28;20038;-65
2023/06/14 04:17:03;;;;;;;6.15;2.90;;;;;;;;;;5116299;28;20050;-65
2023/06/14 04:19:29;;;;;;;6.18;3.03;;;;;;;;;;5116245;28;20016;-65
2023/06/14 04:21:55;;;;;;;8.48;3.10;;;;;;;;;;5116338;27;20349;-65
2023/06/14 04:24:20;;;;;;;11.82;3.95;;;;;;;;;;5114914;28;20047;-65
2023/06/14 04:26:47;;;;;;;10.18;2.80;;;;;;;;;;5115847;28;20030;-65
2023/06/14 04:29:16;;;;;;;5.63;2.97;;;;;;;;;;5115828;28;20036;-65
2023/06/14 04:31:44;;;;;;;25.42;12.70;;;;;;;;;;5115801;28;20030;-64
2023/06/14 04:34:16;;;;;;;8.95;3.53;;;;;;;;;;5115964;28;20520;-65
2023/06/14 04:36:49;;;;;;;9.07;3.33;;;;;;;;;;5114710;28;20035;-64
2023/06/14 04:39:20;;;;;;;8.98;2.95;;;;;;;;;;5104197;28;20034;-65
2023/06/14 04:41:46;;;;;;;9.98;3.15;;;;;;;;;;5115778;28;20049;-65
2023/06/14 04:44:12;;;;;;;5.53;2.75;;;;;;;;;;5115645;28;20023;-65
2023/06/14 04:46:45;;;;;;;6.80;3.05;;;;;;;;;;5109726;28;20030;-65
2023/06/14 04:49:17;;;;;;;6.03;3.08;;;;;;;;;;5095158;28;20047;-65
2023/06/14 04:51:43;;;;;;;9.32;2.97;;;;;;;;;;5095406;28;20020;-65
2023/06/14 04:54:15;;;;;;;10.60;3.30;;;;;;;;;;5095111;28;20024;-65
2023/06/14 04:56:45;;;;;;;7.40;3.42;;;;;;;;;;5094346;28;20043;-64
2023/06/14 04:59:11;;;;;;;5.55;3.08;;;;;;;;;;5094845;28;20085;-65
2023/06/14 05:01:37;;;;;;;6.00;3.10;;;;;;;;;;5094943;28;20024;-65
2023/06/14 05:04:03;;;;;;;7.72;3.30;;;;;;;;;;5105859;28;20412;-65
2023/06/14 05:06:28;;;;;;;12.38;2.88;;;;;;;;;;5115090;28;20102;-65
2023/06/14 05:08:54;;;;;;;7.70;2.92;;;;;;;;;;5115316;28;20028;-64
2023/06/14 05:11:20;;;;;;;6.40;2.97;;;;;;;;;;5114772;28;20032;-64
2023/06/14 05:13:46;;;;;;;12.50;3.20;;;;;;;;;;5114782;27;20035;-65
2023/06/14 05:16:13;;;;;;;8.52;2.83;;;;;;;;;;5115026;28;20027;-65
2023/06/14 05:18:40;;;;;;;7.20;3.10;;;;;;;;;;5115059;28;20046;-65
2023/06/14 05:21:05;;;;;;;7.45;3.10;;;;;;;;;;5115039;28;20494;-65
2023/06/14 05:23:31;;;;;;;8.57;2.90;;;;;;;;;;5114790;28;20093;-65
2023/06/14 05:25:57;;;;;;;6.82;2.88;;;;;;;;;;5114453;28;20037;-65
2023/06/14 05:28:23;;;;;;;9.30;2.60;;;;;;;;;;5114969;28;20027;-65
2023/06/14 05:30:48;;;;;;;8.63;2.70;;;;;;;;;;5114953;28;20090;-65
2023/06/14 05:33:14;;;;;;;8.63;3.35;;;;;;;;;;5114792;28;20042;-65
2023/06/14 05:35:39;;;;;;;8.68;3.25;;;;;;;;;;5114657;28;20023;-64
2023/06/14 05:38:05;;;;;;;9.68;2.90;;;;;;;;;;5101830;28;20038;-65
2023/06/14 05:40:31;;;;;;;5.80;2.60;;;;;;;;;;5113560;28;20038;-65
2023/06/14 05:42:56;;;;;;;9.75;3.08;;;;;;;;;;5114749;28;20016;-65
2023/06/14 05:45:21;;;;;;;7.35;2.72;;;;;;;;;;5114567;28;20026;-66
2023/06/14 05:47:47;;;;;;;6.72;3.00;;;;;;;;;;5098519;28;20118;-65
2023/06/14 05:50:12;;;;;;;7.57;3.10;;;;;;;;;;5093954;28;20077;-66
2023/06/14 05:52:38;;;;;;;12.90;3.60;;;;;;;;;;5093948;28;20020;-65
2023/06/14 05:55:04;;;;;;;6.07;2.72;;;;;;;;;;5093612;28;20521;-65
2023/06/14 05:57:30;;;;;;;11.75;2.92;;;;;;;;;;5093888;28;20165;-64
2023/06/14 05:59:55;;;;;;;6.82;2.90;;;;;;;;;;5092431;28;20122;-65
2023/06/14 06:02:21;;;;;;;8.98;2.80;;;;;;;;;;5093818;28;20088;-65
2023/06/14 06:04:46;;;;;;;7.25;2.90;;;;;;;;;;5112158;28;20471;-65
2023/06/14 06:07:12;;;;;;;8.60;3.20;;;;;;;;;;5113989;28;20461;-65
2023/06/14 06:09:37;;;;;;;7.10;2.60;;;;;;;;;;5113608;28;20035;-65
2023/06/14 06:12:05;;;;;;;5.97;2.60;;;;;;;;;;5114069;28;20399;-65
2023/06/14 06:14:30;;;;;;;7.30;2.47;;;;;;;;;;5112595;28;20050;-65
2023/06/14 06:16:56;;;;;;;5.63;2.65;;;;;;;;;;5113897;27;20445;-65
2023/06/14 06:19:21;;;;;;;9.52;2.67;;;;;;;;;;5113934;28;20023;-65
2023/06/14 06:21:47;;;;;;;7.68;2.72;;;;;;;;;;5113515;28;20019;-65
2023/06/14 06:24:12;;;;;;;5.60;2.85;;;;;;;;;;5113707;28;20035;-65
2023/06/14 06:26:39;;;;;;;7.20;3.00;;;;;;;;;;5113630;28;20107;-65
2023/06/14 06:29:05;;;;;;;10.60;2.90;;;;;;;;;;5113723;28;20503;-65
2023/06/14 06:31:30;;;;;;;8.85;3.10;;;;;;;;;;5113532;28;20056;-65
2023/06/14 06:33:56;;;;;;;6.05;3.10;;;;;;;;;;5113522;28;20036;-65
2023/06/14 06:36:21;;;;;;;9.07;2.95;;;;;;;;;;5113477;28;20066;-65
2023/06/14 06:38:47;;;;;;;6.65;2.60;;;;;;;;;;5099316;28;20039;-65
2023/06/14 06:41:13;;;;;;;5.30;2.55;;;;;;;;;;5113364;28;20439;-65
2023/06/14 06:43:38;;;;;;;6.05;2.50;;;;;;;;;;5113407;28;20381;-65
2023/06/14 06:46:04;;;;;;;4.85;2.85;;;;;;;;;;5112190;28;20457;-65
2023/06/14 06:48:29;;;;;;;9.15;3.08;;;;;;;;;;5092467;28;20101;-65
2023/06/14 06:50:54;;;;;;;9.68;2.70;;;;;;;;;;5092983;28;20096;-65
2023/06/14 06:53:22;;;;;;;8.73;2.67;;;;;;;;;;5092754;28;20118;-65
2023/06/14 06:55:48;;;;;;;7.47;2.60;;;;;;;;;;5092901;28;20046;-65
2023/06/14 06:58:13;;;;;;;6.60;2.30;;;;;;;;;;5093038;28;20024;-65
2023/06/14 07:00:39;;;;;;;23.58;4.45;;;;;;;;;;5092819;28;20081;-65
2023/06/14 07:03:05;;;;;;;7.07;2.33;;;;;;;;;;5096727;28;20015;-65
2023/06/14 07:05:31;;;;;;;5.50;2.30;;;;;;;;;;5113015;28;20362;-65
2023/06/14 07:07:56;;;;;;;7.85;2.40;;;;;;;;;;5112728;28;20441;-65
2023/06/14 07:10:22;;;;;;;5.63;2.33;;;;;;;;;;5112941;28;20023;-65
2023/06/14 07:12:47;;;;;;;6.13;2.58;;;;;;;;;;5113072;28;20093;-65
2023/06/14 07:15:13;;;;;;;8.02;2.92;;;;;;;;;;5112935;28;20458;-65
2023/06/14 07:17:38;;;;;;;9.85;2.63;;;;;;;;;;5113024;28;20468;-65
2023/06/14 07:20:24;;;;;;;8.68;2.40;;;;;;;;;;5114238;28;20377;-65
2023/06/14 07:22:49;;;;;;;11.45;2.92;;;;;;;;;;5117105;28;20042;-65
2023/06/14 07:25:15;;;;;;;5.40;2.33;;;;;;;;;;5117325;28;20507;-65
2023/06/14 07:27:41;;;;;;;6.97;2.60;;;;;;;;;;5115755;28;20465;-65
2023/06/14 07:30:08;;;;;;;5.22;2.35;;;;;;;;;;5117073;28;20473;-65
2023/06/14 07:32:33;;;;;;;6.28;2.30;;;;;;;;;;5116825;28;20023;-65
2023/06/14 07:34:59;;;;;;;3.22;2.15;;;;;;;;;;5117059;28;20524;-65
2023/06/14 07:37:24;;;;;;;6.25;2.40;;;;;;;;;;5109487;28;20052;-65
2023/06/14 07:39:50;;;;;;;5.65;2.28;;;;;;;;;;5110251;28;20102;-65
2023/06/14 07:42:15;;;;;;;9.52;2.47;;;;;;;;;;5116842;28;20031;-65
2023/06/14 07:44:41;;;;;;;5.57;2.22;;;;;;;;;;5116775;28;20067;-65
2023/06/14 07:47:06;;;;;;;4.78;2.40;;;;;;;;;;5106582;28;20118;-66
2023/06/14 07:49:32;;;;;;;6.75;2.35;;;;;;;;;;5096232;28;20067;-65
2023/06/14 07:51:58;;;;;;;7.95;2.40;;;;;;;;;;5096039;28;20027;-65
2023/06/14 07:54:26;;;;;;;3.75;2.40;;;;;;;;;;5096178;28;20024;-65
2023/06/14 07:56:52;;;;;;;9.77;2.20;;;;;;;;;;5096145;28;20063;-65
2023/06/14 07:59:17;;;;;;;4.07;2.00;;;;;;;;;;5095938;28;20385;-63
2023/06/14 08:01:46;;;;;;;4.00;2.28;;;;;;;;;;5095943;28;20461;-63
2023/06/14 08:04:13;;;;;;;4.78;2.33;;;;;;;;;;5109656;28;20020;-64
2023/06/14 08:06:38;;;;;;;5.18;2.28;;;;;;;;;;5115732;27;20027;-64
2023/06/14 08:09:05;;;;;;;5.28;2.20;;;;;;;;;;5114900;28;20031;-64
2023/06/14 08:11:30;;;;;;;11.18;2.50;;;;;;;;;;5116319;28;20027;-65
2023/06/14 08:13:56;;;;;;;5.65;2.17;;;;;;;;;;5116241;27;20480;-64
2023/06/14 08:16:21;;;;;;;5.00;2.00;;;;;;;;;;5116140;28;20042;-65
2023/06/14 08:18:46;;;;;;;8.30;2.53;;;;;;;;;;5116225;28;20030;-64
2023/06/14 08:21:14;;;;;;;6.72;2.20;;;;;;;;;;5115792;28;20110;-64
2023/06/14 08:23:40;;;;;;;4.70;2.08;;;;;;;;;;5116069;28;20404;-64
2023/06/14 08:26:06;;;;;;;5.57;2.28;;;;;;;;;;5115991;28;20027;-65
2023/06/14 08:28:31;;;;;;;5.13;2.25;;;;;;;;;;5115647;28;20508;-64
2023/06/14 08:30:56;;;;;;;7.85;2.00;;;;;;;;;;5115101;28;20058;-65
2023/06/14 08:33:22;;;;;;;4.32;2.10;;;;;;;;;;5115227;28;20102;-66
2023/06/14 08:35:47;;;;;;;3.60;2.17;;;;;;;;;;5115422;28;20417;-64
2023/06/14 08:38:13;;;;;;;7.07;2.53;;;;;;;;;;5102211;28;20028;-63
2023/06/14 08:40:40;;;;;;;7.90;2.63;;;;;;;;;;5115657;28;20031;-64
2023/06/14 08:43:06;;;;;;;12.10;2.38;;;;;;;;;;5115842;28;20030;-65
2023/06/14 08:45:31;;;;;;;4.80;2.40;;;;;;;;;;5115844;28;20027;-65
2023/06/14 08:48:01;;;;;;;9.18;2.33;;;;;;;;;;5098276;28;20554;-65
2023/06/14 08:50:30;;;;;;;9.40;2.60;;;;;;;;;;5094903;28;20043;-66
2023/06/14 08:53:01;;;;;;;4.38;2.10;;;;;;;;;;5095199;28;20056;-66
2023/06/14 08:55:28;;;;;;;9.18;2.30;;;;;;;;;;5094985;28;20028;-65
2023/06/14 08:57:57;;;;;;;8.07;2.15;;;;;;;;;;5094817;28;20031;-63
2023/06/14 09:00:24;;;;;;;6.07;2.42;;;;;;;;;;5094879;28;20016;-65
2023/06/14 09:02:55;;;;;;;5.28;2.30;;;;;;;;;;5097036;28;20060;-65
2023/06/14 09:05:23;;;;;;;7.30;2.22;;;;;;;;;;5115173;28;20069;-65
2023/06/14 09:07:50;;;;;;;7.82;2.45;;;;;;;;;;5115051;28;20039;-65
2023/06/14 09:10:16;;;;;;;4.72;2.53;;;;;;;;;;5115211;28;20071;-63
2023/06/14 09:12:42;;;;;;;4.40;2.17;;;;;;;;;;5115174;28;20023;-63
2023/06/14 09:15:08;;;;;;;6.78;2.20;;;;;;;;;;5113814;28;20483;-63
2023/06/14 09:17:39;;;;;;;4.43;2.10;;;;;;;;;;5115109;28;20382;-65
2023/06/14 09:20:10;;;;;;;5.63;2.08;;;;;;;;;;5113349;28;20115;-63
2023/06/14 09:22:38;;;;;;;5.10;2.00;;;;;;;;;;5114934;28;20035;-63
2023/06/14 09:25:04;;;;;;;7.47;2.25;;;;;;;;;;5113509;28;20118;-63
2023/06/14 09:27:30;;;;;;;7.63;2.33;;;;;;;;;;5114768;28;20484;-64
2023/06/14 09:29:55;;;;;;;8.23;2.40;;;;;;;;;;5114621;28;20063;-63
2023/06/14 09:32:22;;;;;;;4.20;2.10;;;;;;;;;;5114369;28;20012;-63
2023/06/14 09:34:48;;;;;;;6.75;2.15;;;;;;;;;;5115101;28;20380;-63
2023/06/14 09:37:26;;;;;;;6.78;2.50;;;;;;;;;;5109002;28;20012;-63
2023/06/14 09:39:51;;;;;;;3.33;2.10;;;;;;;;;;5108281;28;20031;-63
2023/06/14 09:42:19;;;;;;;4.57;1.98;;;;;;;;;;5114270;28;20460;-63
2023/06/14 09:44:47;;;;;;;5.95;2.53;;;;;;;;;;5114462;28;20024;-63
2023/06/14 09:47:14;;;;;;;5.82;2.17;;;;;;;;;;5103148;28;20032;-63
2023/06/14 09:49:40;;;;;;;7.78;2.40;;;;;;;;;;5093770;28;20146;-65
2023/06/14 09:52:07;;;;;;;6.30;2.67;;;;;;;;;;5094185;28;20060;-65
2023/06/14 09:54:36;;;;;;;6.45;2.38;;;;;;;;;;5094002;28;20016;-65
2023/06/14 09:57:03;;;;;;;4.63;2.15;;;;;;;;;;5093808;28;20024;-63
2023/06/14 09:59:32;;;;;;;8.82;2.10;;;;;;;;;;5093940;28;20366;-65
2023/06/14 10:01:59;;;;;;;8.30;2.00;;;;;;;;;;5093460;28;20146;-64
2023/06/14 10:04:27;;;;;;;6.00;2.20;;;;;;;;;;5109125;28;20027;-63
2023/06/14 10:06:53;;;;;;;5.18;2.10;;;;;;;;;;5114015;28;20023;-64
2023/06/14 10:09:19;;;;;;;11.07;2.08;;;;;;;;;;5113650;27;20043;-64
2023/06/14 10:11:45;;;;;;;11.35;2.58;;;;;;;;;;5113808;28;20078;-64
2023/06/14 10:14:13;;;;;;;8.77;2.25;;;;;;;;;;5114002;28;20036;-64
2023/06/14 10:16:47;;;;;;;6.35;2.10;;;;;;;;;;5112316;28;20031;-64
2023/06/14 10:19:26;;;;;;;4.55;2.20;;;;;;;;;;5113909;28;20028;-64
2023/06/14 10:21:53;;;;;;;5.03;2.03;;;;;;;;;;5113829;28;20023;-64
2023/06/14 10:24:23;;;;;;;5.85;2.20;;;;;;;;;;5113834;28;20445;-64
2023/06/14 10:26:54;;;;;;;7.00;2.20;;;;;;;;;;5113516;28;20181;-64
2023/06/14 10:29:20;;;;;;;6.55;2.28;;;;;;;;;;5113692;28;20023;-64
2023/06/14 10:31:50;;;;;;;10.20;2.13;;;;;;;;;;5113529;28;20027;-64
2023/06/14 10:34:29;;;;;;;10.02;2.22;;;;;;;;;;5113645;28;20512;-64
2023/06/14 10:37:06;;;;;;;5.05;2.25;;;;;;;;;;5110641;28;20024;-63
2023/06/14 10:39:37;;;;;;;5.97;2.20;;;;;;;;;;5104169;28;20061;-64
2023/06/14 10:42:04;;;;;;;4.40;2.55;;;;;;;;;;5113658;28;20031;-64
2023/06/14 10:44:29;;;;;;;8.05;2.42;;;;;;;;;;5113214;28;20028;-64
2023/06/14 10:46:57;;;;;;;18.13;2.60;;;;;;;;;;5104756;28;20032;-63
2023/06/14 10:49:45;;;;;;;8.70;2.85;;;;;;;;;;5092637;28;20024;-63
2023/06/14 10:52:16;;;;;;;10.93;2.70;;;;;;;;;;5092919;28;20101;-63
2023/06/14 10:55:01;;;;;;;6.95;2.25;;;;;;;;;;5092218;28;20024;-64
2023/06/14 10:57:27;;;;;;;7.20;2.47;;;;;;;;;;5092952;28;20028;-64
2023/06/14 10:59:54;;;;;;;5.80;2.50;;;;;;;;;;5092617;28;20082;-64
2023/06/14 11:02:19;;;;;;;7.35;2.45;;;;;;;;;;5092893;28;20483;-64
2023/06/14 11:04:52;;;;;;;12.55;2.20;;;;;;;;;;5110949;28;20035;-66
2023/06/14 11:07:20;;;;;;;10.68;2.70;;;;;;;;;;5113134;28;20469;-65
2023/06/14 11:09:49;;;;;;;4.65;2.25;;;;;;;;;;5112983;28;20028;-65
2023/06/14 11:12:15;;;;;;;9.82;2.30;;;;;;;;;;5113203;28;20056;-65
2023/06/14 11:14:41;;;;;;;11.50;2.25;;;;;;;;;;5112808;28;20457;-65
2023/06/14 11:17:06;;;;;;;12.70;2.92;;;;;;;;;;5113176;28;20044;-64
2023/06/14 11:19:32;;;;;;;6.80;2.40;;;;;;;;;;5113163;28;20024;-64
2023/06/14 11:21:57;;;;;;;8.73;2.70;;;;;;;;;;5113149;28;20023;-64
2023/06/14 11:24:22;;;;;;;8.48;2.63;;;;;;;;;;5112742;28;20019;-65
2023/06/14 11:26:49;;;;;;;8.77;2.65;;;;;;;;;;5113018;28;20028;-65
2023/06/14 11:29:16;;;;;;;8.50;2.70;;;;;;;;;;5112661;28;20100;-64
2023/06/14 11:31:45;;;;;;;10.05;2.90;;;;;;;;;;5113038;28;20469;-64
2023/06/14 11:34:12;;;;;;;12.20;2.93;;;;;;;;;;5111725;28;20053;-64
2023/06/14 11:36:38;;;;;;;9.13;2.40;;;;;;;;;;5112479;28;20059;-65
2023/06/14 11:39:06;;;;;;;22.30;2.72;;;;;;;;;;5099674;28;20028;-65
2023/06/14 11:41:41;;;;;;;7.60;2.40;;;;;;;;;;5112450;28;20039;-63
2023/06/14 11:44:07;;;;;;;10.85;2.65;;;;;;;;;;5112625;28;20493;-66
2023/06/14 11:46:33;;;;;;;8.38;2.78;;;;;;;;;;5107670;28;20097;-65
2023/06/14 11:48:58;;;;;;;8.90;2.75;;;;;;;;;;5092090;28;20081;-65
2023/06/14 11:51:24;;;;;;;9.80;2.53;;;;;;;;;;5092476;28;20115;-65
2023/06/14 11:53:50;;;;;;;10.63;2.65;;;;;;;;;;5092323;28;20026;-65
2023/06/14 11:56:16;;;;;;;5.85;2.80;;;;;;;;;;5092461;28;20114;-65
2023/06/14 11:58:43;;;;;;;5.85;2.40;;;;;;;;;;5092082;28;20473;-64
2023/06/14 12:01:08;;;;;;;7.38;2.42;;;;;;;;;;5092525;28;20024;-66
2023/06/14 12:03:35;;;;;;;6.75;2.30;;;;;;;;;;5100709;28;20093;-65
2023/06/14 12:06:08;;;;;;;8.35;2.38;;;;;;;;;;5113880;28;20055;-65
2023/06/14 12:08:39;;;;;;;6.45;2.67;;;;;;;;;;5116115;28;20038;-65
2023/06/14 12:11:08;;;;;;;9.05;2.50;;;;;;;;;;5116484;27;20524;-67
2023/06/14 12:13:34;;;;;;;8.38;2.60;;;;;;;;;;5116220;28;20368;-65
2023/06/14 12:16:00;;;;;;;7.95;2.70;;;;;;;;;;5116262;28;20034;-65
2023/06/14 12:18:36;;;;;;;8.63;2.60;;;;;;;;;;5116134;28;20369;-65
2023/06/14 12:21:04;;;;;;;6.32;2.13;;;;;;;;;;5116010;28;20028;-65
2023/06/14 12:24:03;;;;;;;6.45;2.58;;;;;;;;;;5115906;28;20528;-65
2023/06/14 12:26:28;;;;;;;8.40;2.40;;;;;;;;;;5052820;28;20487;-65
2023/06/14 12:28:54;;;;;;;8.13;2.65;;;;;;;;;;5053403;28;20141;-65
2023/06/14 12:31:19;;;;;;;9.63;2.63;;;;;;;;;;5053344;28;20029;-65
2023/06/14 12:33:48;;;;;;;5.28;2.80;;;;;;;;;;5053184;28;20028;-65
2023/06/14 12:36:15;;;;;;;5.95;2.40;;;;;;;;;;5053195;28;20621;-65
2023/06/14 12:38:41;;;;;;;13.18;2.92;;;;;;;;;;5039223;28;20375;-64
2023/06/14 12:41:07;;;;;;;11.73;2.83;;;;;;;;;;5052909;28;20033;-65
2023/06/14 12:43:33;;;;;;;8.00;2.63;;;;;;;;;;5053002;28;20040;-65
2023/06/14 12:45:59;;;;;;;11.98;2.88;;;;;;;;;;5052645;28;20029;-65
2023/06/14 12:48:27;;;;;;;7.60;2.70;;;;;;;;;;5032647;28;20042;-65
2023/06/14 12:50:52;;;;;;;8.20;2.25;;;;;;;;;;5032766;28;20025;-65
2023/06/14 12:53:18;;;;;;;8.40;2.65;;;;;;;;;;5032869;28;20091;-65
2023/06/14 12:55:43;;;;;;;7.20;2.70;;;;;;;;;;5032649;28;20045;-65
2023/06/14 12:58:09;;;;;;;6.57;2.47;;;;;;;;;;5032708;28;20402;-65
2023/06/14 13:00:35;;;;;;;6.45;2.40;;;;;;;;;;5032551;28;20029;-63
2023/06/14 13:03:00;;;;;;;9.15;2.58;;;;;;;;;;5077548;28;20036;-64
2023/06/14 13:05:26;;;;;;;10.18;2.33;;;;;;;;;;5115215;28;20138;-63
2023/06/14 13:07:51;;;;;;;12.50;2.60;;;;;;;;;;5115073;28;20485;-64
2023/06/14 13:10:17;;;;;;;7.75;2.70;;;;;;;;;;5113580;28;20358;-64
2023/06/14 13:12:43;;;;;;;4.38;2.35;;;;;;;;;;5114998;27;20644;-64
2023/06/14 13:15:09;;;;;;;9.95;2.30;;;;;;;;;;5114868;28;20027;-64
2023/06/14 13:17:38;;;;;;;7.45;2.60;;;;;;;;;;5114377;28;20100;-67
2023/06/14 13:20:08;;;;;;;10.13;2.47;;;;;;;;;;5114561;28;20043;-64
2023/06/14 13:22:36;;;;;;;5.90;2.50;;;;;;;;;;5114930;28;20423;-64
2023/06/14 13:25:03;;;;;;;9.10;2.58;;;;;;;;;;5114586;28;20377;-65
2023/06/14 13:27:28;;;;;;;24.75;3.30;;;;;;;;;;5114455;28;20445;-64
2023/06/14 13:29:54;;;;;;;14.73;2.63;;;;;;;;;;5114858;28;20024;-64
2023/06/14 13:32:23;;;;;;;10.13;2.70;;;;;;;;;;5114829;27;20068;-64
2023/06/14 13:34:49;;;;;;;10.50;2.72;;;;;;;;;;5114671;28;20023;-64
2023/06/14 13:37:14;;;;;;;13.05;3.00;;;;;;;;;;5108938;28;20408;-64
2023/06/14 13:39:40;;;;;;;13.93;3.75;;;;;;;;;;5105921;28;20133;-65
2023/06/14 13:42:06;;;;;;;5.95;2.90;;;;;;;;;;5114728;28;20461;-65
2023/06/14 13:44:31;;;;;;;10.98;3.28;;;;;;;;;;5114548;28;20023;-64
2023/06/14 13:46:56;;;;;;;13.25;2.97;;;;;;;;;;5104471;28;20028;-64
2023/06/14 13:49:22;;;;;;;10.20;2.80;;;;;;;;;;5093817;28;20385;-64
2023/06/14 13:51:48;;;;;;;11.32;3.00;;;;;;;;;;5093865;28;20024;-64
2023/06/14 13:54:16;;;;;;;12.70;3.35;;;;;;;;;;5093474;28;20028;-64
2023/06/14 13:56:42;;;;;;;6.78;2.70;;;;;;;;;;5093953;28;20040;-64
2023/06/14 13:59:07;;;;;;;7.03;2.80;;;;;;;;;;5093897;28;20107;-65
2023/06/14 14:01:33;;;;;;;10.00;2.85;;;;;;;;;;5093981;28;20081;-64
2023/06/14 14:04:00;;;;;;;7.28;2.50;;;;;;;;;;5105285;28;20035;-64
2023/06/14 14:06:26;;;;;;;7.72;2.70;;;;;;;;;;5113593;28;20062;-64
2023/06/14 14:08:52;;;;;;;7.35;2.80;;;;;;;;;;5113603;28;20063;-64
2023/06/14 14:11:18;;;;;;;11.15;2.70;;;;;;;;;;5113898;28;20073;-64
2023/06/14 14:13:44;;;;;;;5.57;2.70;;;;;;;;;;5112589;28;20032;-64
2023/06/14 14:16:10;;;;;;;7.00;3.00;;;;;;;;;;5113792;28;20392;-65
2023/06/14 14:18:36;;;;;;;8.48;3.00;;;;;;;;;;5113856;28;20030;-65
2023/06/14 14:21:02;;;;;;;9.02;2.88;;;;;;;;;;5113915;28;20026;-65
2023/06/14 14:23:28;;;;;;;9.18;3.00;;;;;;;;;;5113668;28;20023;-64
2023/06/14 14:25:53;;;;;;;7.05;2.80;;;;;;;;;;5113716;28;20440;-65
2023/06/14 14:28:20;;;;;;;5.60;3.10;;;;;;;;;;5112423;28;20449;-65
2023/06/14 14:30:47;;;;;;;6.55;3.60;;;;;;;;;;5112575;27;20051;-65
2023/06/14 14:33:16;;;;;;;8.23;2.78;;;;;;;;;;5113522;28;20015;-65
2023/06/14 14:35:47;;;;;;;8.13;3.03;;;;;;;;;;5113530;28;20023;-65
2023/06/14 14:38:14;;;;;;;10.30;2.65;;;;;;;;;;5099637;28;20081;-64